createdAt,value
2022-12-31T00:00:04.361Z,87.2
2022-12-31T00:01:04.081Z,87.2
2022-12-31T00:02:04.200Z,86.4
2022-12-31T00:03:04.245Z,86.3
2022-12-31T00:04:04.213Z,86.8
2022-12-31T00:05:04.597Z,87.2
2022-12-31T00:06:04.083Z,88.2
2022-12-31T00:07:04.087Z,88.2
2022-12-31T00:08:04.085Z,88.3
2022-12-31T00:09:04.088Z,88
2022-12-31T00:10:04.091Z,88.2
2022-12-31T00:11:04.347Z,87.4
2022-12-31T00:12:04.082Z,87
2022-12-31T00:13:04.087Z,87.6
2022-12-31T00:14:04.583Z,87.7
2022-12-31T00:15:04.557Z,87.9
2022-12-31T00:16:08.345Z,87.9
2022-12-31T00:17:04.146Z,88.3
2022-12-31T00:18:04.089Z,88.5
2022-12-31T00:19:04.093Z,88.9
2022-12-31T00:20:04.087Z,88.2
2022-12-31T00:21:04.087Z,86.9
2022-12-31T00:22:04.085Z,86.5
2022-12-31T00:23:04.096Z,87.1
2022-12-31T00:24:04.117Z,87.4
2022-12-31T00:25:04.095Z,88.4
2022-12-31T00:26:04.914Z,89.2
2022-12-31T00:27:04.091Z,89.5
2022-12-31T00:28:04.083Z,90.5
2022-12-31T00:29:04.098Z,90.4
2022-12-31T00:30:05.166Z,90.4
2022-12-31T00:31:04.228Z,89.9
2022-12-31T00:32:04.208Z,90.3
2022-12-31T00:33:04.102Z,90.1
2022-12-31T00:34:04.841Z,89.8
2022-12-31T00:35:04.084Z,90.6
2022-12-31T00:36:04.099Z,90.6
2022-12-31T00:37:04.095Z,91
2022-12-31T00:38:04.227Z,91.5
2022-12-31T00:39:04.525Z,92.1
2022-12-31T00:40:04.227Z,92.4
2022-12-31T00:41:04.093Z,93.5
2022-12-31T00:42:04.089Z,94.6
2022-12-31T00:43:04.360Z,94.7
2022-12-31T00:44:04.093Z,95.2
2022-12-31T00:45:05.010Z,94.8
2022-12-31T00:46:04.234Z,94
2022-12-31T00:47:04.098Z,93.5
2022-12-31T14:21:21.730Z,69.4
2022-12-31T14:32:28.303Z,67.2
2022-12-31T14:35:21.728Z,66.2
2022-12-31T14:36:21.726Z,66.3
2022-12-31T14:37:22.031Z,65.9
2022-12-31T14:38:21.750Z,65.4
2022-12-31T14:40:21.752Z,65.2
2022-12-31T14:41:21.724Z,64.7
2022-12-31T14:42:21.859Z,64.6
2022-12-31T14:43:21.720Z,64.4
2022-12-31T14:46:21.801Z,63.6
2022-12-31T14:47:21.961Z,63.7
2022-12-31T14:48:22.067Z,64.1
2022-12-31T14:49:21.798Z,64.5
2022-12-31T14:50:21.730Z,65.3
2022-12-31T14:52:21.800Z,65.6
2022-12-31T14:53:22.124Z,66.1
2022-12-31T14:54:27.149Z,65.8
2022-12-31T16:01:22.227Z,72.9
2022-12-31T16:03:21.761Z,72.4
2022-12-31T16:11:20.854Z,73.1
2022-12-31T16:13:22.346Z,72.5
2022-12-31T16:14:21.820Z,72.7
2022-12-31T16:15:21.786Z,71.9
2022-12-31T16:16:22.689Z,71.2
2022-12-31T16:19:21.757Z,70.8
2022-12-31T16:20:21.766Z,70.7
2022-12-31T16:21:22.389Z,71.5
2022-12-31T16:22:22.590Z,71.6
2022-12-31T16:24:21.740Z,71.5
2022-12-31T16:25:33.927Z,71
2022-12-31T16:27:22.266Z,70
2022-12-31T16:28:21.744Z,70
2022-12-31T16:29:22.020Z,69.4
2022-12-31T16:30:21.744Z,68.8
2022-12-31T16:33:22.099Z,69.1
2022-12-31T16:34:21.743Z,69.1
2022-12-31T16:35:23.631Z,68.6
2022-12-31T16:36:22.397Z,68.3
2022-12-31T16:37:21.754Z,68.4
2022-12-31T16:38:21.751Z,68.3
2022-12-31T16:39:21.747Z,68.1
2022-12-31T16:40:21.760Z,68
2022-12-31T16:42:21.773Z,67.4
2022-12-31T16:43:21.748Z,67.7
2022-12-31T16:45:20.822Z,67.4
2022-12-31T16:47:21.761Z,66.6
2022-12-31T16:48:21.750Z,67.1
2022-12-31T16:49:21.989Z,66.7
2022-12-31T16:50:21.759Z,67.1
2022-12-31T16:52:21.754Z,65.9
2022-12-31T18:07:22.603Z,61.5
2022-12-31T18:08:21.780Z,61.8
2022-12-31T18:09:22.293Z,61.9
2022-12-31T18:10:22.121Z,61.4
2022-12-31T18:11:20.848Z,61.5
2022-12-31T18:12:20.832Z,61
2022-12-31T18:13:21.759Z,61.1
2022-12-31T18:15:22.495Z,60.6
2022-12-31T18:16:22.400Z,60.6
2022-12-31T18:17:21.861Z,60.4
2022-12-31T18:20:21.765Z,60.7
2022-12-31T18:21:22.216Z,60.5
2022-12-31T18:22:21.760Z,60.6
2022-12-31T18:23:21.774Z,60.2
2022-12-31T18:24:26.037Z,60.3
2022-12-31T18:25:21.776Z,60.1
2022-12-31T18:26:21.975Z,60.3
2022-12-31T18:28:21.769Z,59.6
2022-12-31T18:29:21.761Z,59.6
2022-12-31T18:30:22.395Z,59.6
2022-12-31T18:31:21.874Z,60
2022-12-31T18:32:22.273Z,59.7
2022-12-31T18:34:20.834Z,60
2022-12-31T18:35:49.051Z,60.3
2022-12-31T18:36:22.374Z,59.9
2022-12-31T18:37:22.428Z,59.3
2022-12-31T18:38:22.419Z,59.2
2022-12-31T18:39:20.848Z,59.2
2022-12-31T18:41:22.369Z,59.3
2022-12-31T18:42:22.256Z,58.7
2022-12-31T18:43:22.136Z,59.2
2022-12-31T18:44:21.772Z,59
2022-12-31T18:45:21.799Z,59.4
2022-12-31T18:46:21.830Z,58.9
2022-12-31T18:47:21.768Z,59.2
2022-12-31T18:49:22.089Z,59.1
2022-12-31T18:50:21.769Z,59.5
2022-12-31T18:51:26.419Z,59
2022-12-31T18:52:22.274Z,58.9
2022-12-31T18:53:21.802Z,59.2
2022-12-31T18:54:21.777Z,58.8
2022-12-31T18:55:21.769Z,59.6
2022-12-31T18:56:22.592Z,59
2022-12-31T18:57:22.601Z,58.9
2022-12-31T18:58:21.936Z,58.5
2022-12-31T18:59:21.775Z,58.2
2022-12-31T19:00:21.827Z,58.5
2022-12-31T19:02:21.939Z,58.1
2022-12-31T19:03:22.405Z,58.4
2022-12-31T19:04:27.548Z,59.1
2022-12-31T19:06:21.807Z,57.3
2022-12-31T19:07:21.785Z,57.3
2022-12-31T19:08:21.773Z,57.3
2022-12-31T19:10:21.782Z,57.6
2022-12-31T19:11:21.767Z,57.6
2022-12-31T19:12:21.771Z,57.2
2022-12-31T19:13:21.772Z,57.7
2022-12-31T19:15:21.767Z,57.2
2022-12-31T19:16:21.966Z,56.6
2022-12-31T19:17:22.167Z,56.6
2022-12-31T19:18:21.816Z,56.8
2022-12-31T21:02:40.313Z,50
2022-12-31T21:04:25.724Z,49.8
2022-12-31T21:05:25.841Z,50
2022-12-31T21:06:25.543Z,49.6
2022-12-31T21:07:25.609Z,49
2022-12-31T21:09:25.553Z,49.3
2022-12-31T21:10:25.584Z,49
2022-12-31T21:11:25.551Z,49
2022-12-31T21:12:25.532Z,49.1
2022-12-31T21:13:25.543Z,48.9
2022-12-31T21:14:25.541Z,49.7
2022-12-31T21:15:25.646Z,49.2
2022-12-31T21:16:25.538Z,49.9
2022-12-31T21:17:25.540Z,49.4
2022-12-31T21:18:25.536Z,48.5
2022-12-31T21:19:25.537Z,49.3
2022-12-31T21:20:25.533Z,48.8
2022-12-31T21:21:25.537Z,48.9
2022-12-31T21:22:25.537Z,49.6
2022-12-31T21:23:25.535Z,48.5
2022-12-31T21:24:25.533Z,49
2022-12-31T21:25:25.536Z,48.6
2022-12-31T21:26:25.540Z,48.9
2022-12-31T21:27:25.559Z,48.9
2022-12-31T21:28:25.541Z,48.7
2022-12-31T21:29:27.855Z,48.9
2022-12-31T21:30:25.545Z,48.8
2022-12-31T21:31:25.607Z,48.7
2022-12-31T21:32:25.543Z,48.9
2022-12-31T21:33:25.546Z,48.6
2022-12-31T21:34:25.542Z,49.2
2022-12-31T21:35:45.853Z,48.7
2022-12-31T21:36:25.560Z,48.8
2022-12-31T21:37:25.610Z,48.6
2022-12-31T21:38:25.536Z,49.4
2022-12-31T21:39:25.539Z,48.8
2022-12-31T21:40:25.543Z,48.9
2022-12-31T21:41:25.652Z,48.1
2022-12-31T21:42:25.534Z,48.8
2022-12-31T21:43:25.547Z,48.5
2022-12-31T21:44:25.546Z,48
2022-12-31T21:45:25.540Z,48.3
2022-12-31T21:46:25.621Z,48.1
2022-12-31T21:47:47.268Z,47.8
2022-12-31T21:48:25.556Z,48.3
2022-12-31T21:49:25.544Z,48.1
2022-12-31T21:50:25.555Z,48
2022-12-31T21:51:25.565Z,48.5
2022-12-31T21:52:25.597Z,48.4
2022-12-31T21:53:33.949Z,48.6
2022-12-31T21:54:25.552Z,48.2
2022-12-31T21:55:25.551Z,48.4
2022-12-31T21:57:25.543Z,47.9
2022-12-31T21:58:27.244Z,48.5
2022-12-31T21:59:25.562Z,48.3
2022-12-31T22:00:41.926Z,48.4
2022-12-31T22:01:25.718Z,48
2022-12-31T22:02:25.672Z,48.1
2022-12-31T22:03:25.685Z,48
2022-12-31T22:05:00.463Z,48.2
2022-12-31T22:05:25.549Z,48.2
2022-12-31T22:06:25.550Z,48.3
2022-12-31T22:07:25.563Z,48.1
2022-12-31T22:08:25.547Z,48
2022-12-31T22:09:25.554Z,47.9
2022-12-31T22:10:25.596Z,48.1
2022-12-31T22:11:25.554Z,47.8
2022-12-31T22:12:25.589Z,48.5
2022-12-31T22:13:25.544Z,48.5
2022-12-31T22:14:25.553Z,48
2022-12-31T22:15:25.543Z,48.2
2022-12-31T22:16:25.583Z,48
2022-12-31T22:17:26.335Z,48.1
2022-12-31T22:18:25.550Z,48.5
2022-12-31T22:19:25.637Z,48.5
2022-12-31T22:20:27.523Z,48.5
2022-12-31T22:21:25.553Z,48.1
2022-12-31T22:22:25.560Z,48.4
2022-12-31T22:23:25.551Z,48.1
2022-12-31T22:24:25.551Z,48.1
2022-12-31T22:25:25.550Z,47.8
2022-12-31T22:26:25.557Z,48.2
2022-12-31T22:27:28.552Z,48.5
2022-12-31T22:28:40.833Z,48
2022-12-31T22:29:25.614Z,47.3
2022-12-31T22:30:25.554Z,48.1
2022-12-31T22:31:25.564Z,48
2022-12-31T22:32:25.579Z,48.2
2022-12-31T22:33:25.551Z,48.4
2022-12-31T22:34:25.548Z,48.3
2022-12-31T22:35:25.549Z,48.7
2022-12-31T22:36:25.549Z,47.7
2022-12-31T22:39:43.721Z,48.2
2022-12-31T22:40:25.572Z,48.5
2022-12-31T22:41:25.560Z,47.7
2022-12-31T22:42:25.552Z,47.7
2022-12-31T22:43:25.547Z,48.4
2022-12-31T22:44:25.552Z,47.9
2022-12-31T22:45:25.550Z,48.1
2022-12-31T22:46:25.591Z,48.5
2022-12-31T22:47:25.569Z,48
2022-12-31T22:48:25.556Z,47.9
2022-12-31T22:49:25.550Z,48.2
2022-12-31T22:50:25.568Z,48.3
2022-12-31T22:51:29.231Z,48.1
2022-12-31T22:52:25.559Z,48.1
2022-12-31T22:53:25.558Z,48.4
2022-12-31T22:55:25.553Z,47.9
2022-12-31T22:57:25.557Z,47.4
2022-12-31T22:58:25.581Z,47.8
2022-12-31T22:59:35.842Z,47.7
2022-12-31T23:00:35.835Z,47.8
2022-12-31T23:01:35.894Z,47.8
2022-12-31T23:02:25.599Z,48.4
2022-12-31T23:03:25.631Z,48.7
2022-12-31T23:04:25.591Z,48.1
2022-12-31T23:05:25.627Z,47.9
2022-12-31T23:06:25.556Z,48.4
2022-12-31T23:07:25.569Z,47.8
2022-12-31T23:08:25.569Z,48.4
2022-12-31T23:09:25.552Z,48.1
2022-12-31T23:10:25.596Z,48.2
2022-12-31T23:11:25.560Z,47.9
2022-12-31T23:12:25.557Z,47.8
2022-12-31T23:13:25.556Z,47.3
2022-12-31T23:14:25.554Z,47.6
2022-12-31T23:15:25.587Z,47.8
2022-12-31T23:16:25.604Z,47.7
2022-12-31T23:17:29.979Z,47.5
2022-12-31T23:18:25.560Z,47.8
2022-12-31T23:19:25.558Z,47.6
2022-12-31T23:20:25.570Z,47.8
2022-12-31T23:21:25.561Z,47.2
2022-12-31T23:22:25.570Z,47.9
2022-12-31T23:23:25.560Z,47.3
2022-12-31T23:24:26.643Z,47.3
2022-12-31T23:25:25.562Z,47.8
2022-12-31T23:26:25.563Z,47.5
2022-12-31T23:27:25.564Z,48
2022-12-31T23:28:25.645Z,47.6
2022-12-31T23:29:25.603Z,48.1
2022-12-31T23:30:25.561Z,47.4
2022-12-31T23:31:25.603Z,47.6
2022-12-31T23:32:25.564Z,47.2
2022-12-31T23:33:25.562Z,47.6
2022-12-31T23:34:25.570Z,47.4
2022-12-31T23:35:25.559Z,47.8
2022-12-31T23:36:25.560Z,47.7
2022-12-31T23:37:25.562Z,47.9
2022-12-31T23:38:25.571Z,47.2
2022-12-31T23:39:25.556Z,47.6
2022-12-31T23:40:25.569Z,47.2
2022-12-31T23:41:25.562Z,47.9
2022-12-31T23:42:25.566Z,47.8
2022-12-31T23:43:25.564Z,48.5
2022-12-31T23:44:25.560Z,48.6
2022-12-31T23:45:31.100Z,47.9
2022-12-31T23:46:25.646Z,47.7
2022-12-31T23:47:25.567Z,47.1
2022-12-31T23:48:25.563Z,47.6
2022-12-31T23:49:25.557Z,48.1
2022-12-31T23:50:25.564Z,47.4
2022-12-31T23:51:25.568Z,46.7
2022-12-31T23:52:25.558Z,47
2022-12-31T23:53:25.566Z,47.3
2022-12-31T23:54:25.560Z,46.7
2022-12-31T23:55:25.571Z,47.5
2022-12-31T23:56:25.558Z,46.8
2022-12-31T23:57:25.570Z,47.4
2022-12-31T23:58:25.567Z,46.9
2022-12-31T23:59:25.574Z,47.4
